createdAt,value
2018-12-20T00:02:23.206Z,100690.67
2018-12-20T00:05:27.837Z,100695.36
2018-12-20T00:08:32.543Z,100692.55
2018-12-20T00:11:37.554Z,100687.73
2018-12-20T00:14:42.445Z,100685.61
2018-12-20T00:17:49.817Z,100686.94
2018-12-20T00:20:54.586Z,100689.36
2018-12-20T00:23:59.185Z,100692.00
2018-12-20T00:27:03.739Z,100690.77
2018-12-20T00:30:08.529Z,100688.68
2018-12-20T00:33:14.509Z,100690.83
2018-12-20T00:36:19.172Z,100697.52
2018-12-20T00:39:23.974Z,100695.54
2018-12-20T00:42:28.671Z,100699.10
2018-12-20T00:45:33.386Z,100700.92
2018-12-20T00:48:37.942Z,100689.36
2018-12-20T00:51:42.754Z,100690.79
2018-12-20T00:54:47.443Z,100688.60
2018-12-20T00:57:52.069Z,100683.03
2018-12-20T01:00:57.075Z,100679.47
2018-12-20T01:04:01.693Z,100678.86
2018-12-20T01:07:12.534Z,100681.03
2018-12-20T01:10:17.033Z,100682.91
2018-12-20T01:13:21.658Z,100676.66
2018-12-20T01:16:26.475Z,100674.09
2018-12-20T01:19:31.242Z,100672.84
2018-12-20T01:22:35.959Z,100672.16
2018-12-20T01:25:40.590Z,100670.27
2018-12-20T01:28:45.134Z,100666.20
2018-12-20T01:31:49.850Z,100668.98
2018-12-20T01:34:54.549Z,100663.83
2018-12-20T01:37:59.192Z,100663.63
2018-12-20T01:41:03.802Z,100667.50
2018-12-20T01:44:08.449Z,100663.09
2018-12-20T01:47:13.167Z,100664.75
2018-12-20T01:50:17.823Z,100662.17
2018-12-20T01:53:22.583Z,100665.84
2018-12-20T01:56:27.202Z,100660.04
2018-12-20T01:59:31.822Z,100666.50
2018-12-20T02:02:36.850Z,100658.93
2018-12-20T02:05:41.605Z,100658.50
2018-12-20T02:08:46.200Z,100654.92
2018-12-20T02:11:50.892Z,100664.67
2018-12-20T02:15:01.597Z,100660.04
2018-12-20T02:18:02.085Z,100664.78
2018-12-20T02:21:06.831Z,100666.72
2018-12-20T02:24:11.591Z,100671.39
2018-12-20T02:27:16.354Z,100665.28
2018-12-20T02:30:21.238Z,100658.23
2018-12-20T02:33:26.051Z,100666.48
2018-12-20T02:36:30.771Z,100667.22
2018-12-20T02:39:35.599Z,100659.79
2018-12-20T02:42:40.358Z,100669.57
2018-12-20T02:45:44.940Z,100677.31
2018-12-20T02:48:49.505Z,100677.11
2018-12-20T02:51:54.217Z,100677.25
2018-12-20T02:54:58.954Z,100675.59
2018-12-20T02:58:03.940Z,100684.39
2018-12-20T03:01:08.868Z,100685.47
2018-12-20T03:04:13.514Z,100689.25
2018-12-20T03:07:18.354Z,100692.53
2018-12-20T03:10:23.043Z,100691.15
2018-12-20T03:13:29.680Z,100698.34
2018-12-20T03:16:34.686Z,100696.80
2018-12-20T03:19:39.564Z,100706.21
2018-12-20T03:22:44.408Z,100699.62
2018-12-20T03:25:49.106Z,100698.98
2018-12-20T03:28:53.633Z,100703.95
2018-12-20T03:31:58.348Z,100705.31
2018-12-20T03:35:03.055Z,100706.75
2018-12-20T03:38:07.650Z,100708.42
2018-12-20T03:41:12.407Z,100705.24
2018-12-20T03:44:17.263Z,100710.25
2018-12-20T03:47:22.089Z,100702.30
2018-12-20T03:50:26.807Z,100715.42
2018-12-20T03:53:31.491Z,100716.34
2018-12-20T03:56:36.199Z,100714.47
2018-12-20T03:59:41.552Z,100722.29
2018-12-20T04:02:46.378Z,100727.73
2018-12-20T04:05:51.398Z,100730.41
2018-12-20T04:08:56.193Z,100732.81
2018-12-20T04:12:00.839Z,100735.11
2018-12-20T04:15:05.741Z,100733.52
2018-12-20T04:18:10.442Z,100736.04
2018-12-20T04:21:15.052Z,100737.27
2018-12-20T04:24:19.696Z,100739.97
2018-12-20T04:27:24.216Z,100741.65
2018-12-20T04:30:28.928Z,100737.25
2018-12-20T04:33:33.574Z,100747.38
2018-12-20T04:36:38.683Z,100753.88
2018-12-20T04:39:43.458Z,100747.44
2018-12-20T04:42:48.100Z,100750.81
2018-12-20T04:45:52.992Z,100748.46
2018-12-20T04:48:57.811Z,100749.30
2018-12-20T04:52:02.736Z,100753.58
2018-12-20T04:55:07.624Z,100754.55
2018-12-20T04:58:12.404Z,100751.66
2018-12-20T05:01:17.068Z,100749.34
2018-12-20T05:04:21.767Z,100753.47
2018-12-20T05:07:26.431Z,100760.59
2018-12-20T05:10:31.027Z,100764.77
2018-12-20T05:13:35.689Z,100761.94
2018-12-20T05:16:40.513Z,100767.53
2018-12-20T05:19:46.317Z,100775.20
2018-12-20T05:22:51.051Z,100788.91
2018-12-20T05:25:55.829Z,100791.73
2018-12-20T05:29:00.485Z,100791.69
2018-12-20T05:32:05.168Z,100791.28
2018-12-20T05:35:10.166Z,100798.88
2018-12-20T05:38:15.168Z,100802.67
2018-12-20T05:41:19.869Z,100810.09
2018-12-20T05:44:24.412Z,100811.16
2018-12-20T05:47:28.896Z,100816.87
2018-12-20T05:50:33.490Z,100823.41
2018-12-20T05:53:38.317Z,100822.57
2018-12-20T05:56:43.096Z,100819.73
2018-12-20T05:59:47.851Z,100821.94
2018-12-20T06:02:52.525Z,100830.11
2018-12-20T06:05:57.317Z,100833.84
2018-12-20T06:09:02.249Z,100836.50
2018-12-20T06:12:07.068Z,100837.86
2018-12-20T06:15:11.747Z,100846.73
2018-12-20T06:18:16.733Z,100840.97
2018-12-20T06:21:21.576Z,100852.25
2018-12-20T06:24:26.210Z,100844.42
2018-12-20T06:27:30.858Z,100855.36
2018-12-20T06:30:35.424Z,100854.81
2018-12-20T06:33:40.066Z,100856.78
2018-12-20T06:36:44.710Z,100863.11
2018-12-20T06:39:49.302Z,100867.87
2018-12-20T06:42:53.912Z,100872.73
2018-12-20T06:45:58.601Z,100876.25
2018-12-20T06:49:03.278Z,100882.25
2018-12-20T06:52:07.919Z,100883.20
2018-12-20T06:55:12.504Z,100882.52
2018-12-20T06:58:17.124Z,100881.67
2018-12-20T07:01:21.677Z,100892.70
2018-12-20T07:04:26.207Z,100886.70
2018-12-20T07:07:30.665Z,100892.64
2018-12-20T07:10:35.362Z,100902.20
2018-12-20T07:13:39.851Z,100893.25
2018-12-20T07:16:44.475Z,100893.47
2018-12-20T07:19:49.066Z,100904.66
2018-12-20T07:22:53.898Z,100907.59
2018-12-20T07:25:58.533Z,100909.69
2018-12-20T07:29:03.185Z,100904.91
2018-12-20T07:32:07.715Z,100902.71
2018-12-20T07:35:12.280Z,100907.39
2018-12-20T07:38:17.723Z,100907.55
2018-12-20T07:41:22.310Z,100903.25
2018-12-20T07:44:27.021Z,100911.95
2018-12-20T07:47:31.624Z,100910.98
2018-12-20T07:50:36.226Z,100910.55
2018-12-20T07:53:40.830Z,100910.83
2018-12-20T07:56:45.428Z,100912.96
2018-12-20T07:59:49.960Z,100912.77
2018-12-20T08:02:54.538Z,100913.27
2018-12-20T08:05:59.085Z,100915.67
2018-12-20T08:09:04.585Z,100924.61
2018-12-20T08:12:09.135Z,100923.55
2018-12-20T08:15:13.810Z,100922.47
2018-12-20T08:18:18.429Z,100929.64
2018-12-20T08:21:22.955Z,100932.70
2018-12-20T08:24:27.551Z,100935.89
2018-12-20T08:27:32.941Z,100930.45
2018-12-20T08:30:37.541Z,100937.42
2018-12-20T08:33:42.134Z,100940.16
2018-12-20T08:36:46.763Z,100936.67
2018-12-20T08:39:51.448Z,100936.03
2018-12-20T08:42:56.331Z,100936.44
2018-12-20T08:46:00.989Z,100938.52
2018-12-20T08:49:05.699Z,100932.69
2018-12-20T08:52:10.289Z,100936.59
2018-12-20T08:55:14.991Z,100931.56
2018-12-20T08:58:19.561Z,100927.78
2018-12-20T09:01:24.178Z,100930.30
2018-12-20T09:04:28.783Z,100922.92
2018-12-20T09:07:33.362Z,100912.77
2018-12-20T09:10:37.870Z,100911.06
2018-12-20T09:13:42.447Z,100908.84
2018-12-20T09:16:47.180Z,100904.39
2018-12-20T09:19:51.960Z,100899.13
2018-12-20T09:22:56.714Z,100894.37
2018-12-20T09:26:01.308Z,100898.13
2018-12-20T09:29:06.121Z,100895.56
2018-12-20T09:32:10.741Z,100893.51
2018-12-20T09:35:15.410Z,100891.91
2018-12-20T09:38:19.952Z,100887.26
2018-12-20T09:41:24.621Z,100885.91
2018-12-20T09:44:29.395Z,100875.87
2018-12-20T09:47:39.150Z,100875.86
2018-12-20T09:50:43.795Z,100874.77
2018-12-20T09:53:48.484Z,100875.48
2018-12-20T09:56:54.255Z,100867.92
2018-12-20T09:59:58.953Z,100858.86
2018-12-20T10:03:03.632Z,100864.37
2018-12-20T10:06:09.397Z,100859.71
2018-12-20T10:09:13.875Z,100852.06
2018-12-20T10:12:18.575Z,100844.70
2018-12-20T10:15:23.166Z,100837.54
2018-12-20T10:18:27.879Z,100830.23
2018-12-20T10:21:32.549Z,100827.46
2018-12-20T10:24:37.247Z,100821.20
2018-12-20T10:27:42.037Z,100817.04
2018-12-20T10:30:47.560Z,100821.00
2018-12-20T10:33:52.175Z,100808.91
2018-12-20T10:36:56.741Z,100801.15
2018-12-20T10:40:01.338Z,100794.23
2018-12-20T10:43:05.888Z,100790.45
2018-12-20T10:46:10.482Z,100790.09
2018-12-20T10:49:15.186Z,100782.34
2018-12-20T10:52:19.881Z,100778.56
2018-12-20T10:55:24.562Z,100775.70
2018-12-20T10:58:29.351Z,100774.47
2018-12-20T11:01:38.927Z,100771.27
2018-12-20T11:04:48.623Z,100771.51
2018-12-20T11:08:00.446Z,100771.84
2018-12-20T11:11:09.407Z,100773.58
2018-12-20T11:14:14.013Z,100765.82
2018-12-20T11:17:18.678Z,100760.80
2018-12-20T11:20:23.316Z,100766.03
2018-12-20T11:23:27.941Z,100771.32
2018-12-20T11:26:32.526Z,100765.33
2018-12-20T11:29:37.177Z,100768.64
2018-12-20T11:32:41.690Z,100768.20
2018-12-20T11:35:46.245Z,100754.56
2018-12-20T11:38:50.883Z,100757.83
2018-12-20T11:41:55.613Z,100758.88
2018-12-20T11:45:00.318Z,100753.08
2018-12-20T11:48:04.933Z,100757.09
2018-12-20T11:51:09.581Z,100761.47
2018-12-20T11:54:14.370Z,100761.41
2018-12-20T11:57:18.988Z,100757.14
2018-12-20T12:00:23.537Z,100757.53
2018-12-20T12:03:28.197Z,100758.29
2018-12-20T12:06:32.815Z,100754.28
2018-12-20T12:09:37.443Z,100758.19
2018-12-20T12:12:42.134Z,100749.05
2018-12-20T12:15:46.819Z,100750.73
2018-12-20T12:18:51.497Z,100742.05
2018-12-20T12:21:56.201Z,100739.28
2018-12-20T12:25:00.755Z,100736.48
2018-12-20T12:28:05.372Z,100744.58
2018-12-20T12:31:10.003Z,100747.36
2018-12-20T12:34:14.652Z,100743.98
2018-12-20T12:37:19.425Z,100743.93
2018-12-20T12:40:24.204Z,100747.11
2018-12-20T12:43:28.873Z,100753.11
2018-12-20T12:46:33.407Z,100753.13
2018-12-20T12:49:38.205Z,100756.89
2018-12-20T12:52:42.751Z,100758.67
2018-12-20T12:55:47.491Z,100763.78
2018-12-20T12:58:52.118Z,100756.00
2018-12-20T13:01:56.782Z,100753.17
2018-12-20T13:05:01.269Z,100746.66
2018-12-20T13:08:05.982Z,100738.36
2018-12-20T13:11:10.493Z,100739.21
2018-12-20T13:14:15.068Z,100734.09
2018-12-20T13:17:19.709Z,100734.80
2018-12-20T13:20:24.278Z,100742.19
2018-12-20T13:23:28.856Z,100738.47
2018-12-20T13:26:33.527Z,100746.96
2018-12-20T13:29:38.106Z,100753.20
2018-12-20T13:32:42.734Z,100747.69
2018-12-20T13:35:47.310Z,100749.44
2018-12-20T13:38:51.886Z,100749.44
2018-12-20T13:41:56.550Z,100749.30
2018-12-20T13:45:01.142Z,100747.05
2018-12-20T13:48:05.680Z,100750.53
2018-12-20T13:51:10.342Z,100757.09
2018-12-20T13:54:15.014Z,100753.55
2018-12-20T13:57:19.637Z,100761.20
2018-12-20T14:00:24.230Z,100764.38
2018-12-20T14:03:28.779Z,100756.00
2018-12-20T14:06:33.466Z,100760.51
2018-12-20T14:09:37.935Z,100761.29
2018-12-20T14:12:42.501Z,100752.98
2018-12-20T14:15:47.145Z,100759.13
2018-12-20T14:18:51.693Z,100765.67
2018-12-20T14:21:56.319Z,100762.19
2018-12-20T14:25:00.855Z,100764.17
2018-12-20T14:28:05.388Z,100761.41
2018-12-20T14:31:10.071Z,100767.02
2018-12-20T14:34:14.621Z,100772.04
2018-12-20T14:37:19.157Z,100765.58
2018-12-20T14:40:23.773Z,100766.57
2018-12-20T14:43:28.540Z,100766.47
2018-12-20T14:46:33.139Z,100760.05
2018-12-20T14:49:37.785Z,100758.29
2018-12-20T14:52:42.458Z,100760.02
2018-12-20T14:55:47.116Z,100762.74
2018-12-20T14:58:51.678Z,100761.80
2018-12-20T15:01:56.296Z,100764.91
2018-12-20T15:05:00.850Z,100771.73
2018-12-20T15:08:05.567Z,100759.37
2018-12-20T15:11:10.223Z,100755.70
2018-12-20T15:14:14.825Z,100755.39
2018-12-20T15:17:19.393Z,100747.55
2018-12-20T15:20:24.070Z,100757.83
2018-12-20T15:23:28.707Z,100762.21
2018-12-20T15:26:33.245Z,100763.15
2018-12-20T15:29:37.815Z,100770.09
2018-12-20T15:32:42.434Z,100783.30
2018-12-20T15:35:47.237Z,100779.87
2018-12-20T15:38:51.782Z,100785.93
2018-12-20T15:41:56.397Z,100787.38
2018-12-20T15:45:01.140Z,100781.44
2018-12-20T15:48:05.897Z,100786.81
2018-12-20T15:51:10.550Z,100789.91
2018-12-20T15:54:15.223Z,100792.30
2018-12-20T15:57:19.880Z,100791.55
2018-12-20T16:00:24.767Z,100792.55
2018-12-20T16:03:29.431Z,100798.35
2018-12-20T16:06:34.036Z,100808.19
2018-12-20T16:09:38.688Z,100795.68
2018-12-20T16:12:43.383Z,100801.59
2018-12-20T16:15:48.225Z,100811.66
2018-12-20T16:18:52.898Z,100816.37
2018-12-20T16:21:57.621Z,100822.94
2018-12-20T16:25:02.267Z,100815.97
2018-12-20T16:28:06.890Z,100818.45
2018-12-20T16:31:11.603Z,100821.50
2018-12-20T16:34:16.303Z,100812.25
2018-12-20T16:37:20.903Z,100803.52
2018-12-20T16:40:25.521Z,100810.23
2018-12-20T16:43:30.098Z,100805.45
2018-12-20T16:46:34.688Z,100809.87
2018-12-20T16:49:39.263Z,100813.06
2018-12-20T16:52:43.781Z,100807.24
2018-12-20T16:55:50.265Z,100803.11
2018-12-20T16:58:55.129Z,100810.58
2018-12-20T17:01:59.745Z,100808.22
2018-12-20T17:05:04.557Z,100810.23
2018-12-20T17:08:09.121Z,100810.34
2018-12-20T17:11:13.748Z,100812.75
2018-12-20T17:14:18.419Z,100811.55
2018-12-20T17:17:23.214Z,100806.03
2018-12-20T17:20:27.822Z,100818.92
2018-12-20T17:23:35.672Z,100816.02
2018-12-20T17:26:39.078Z,100815.62
2018-12-20T17:29:43.731Z,100818.62
2018-12-20T17:32:48.509Z,100818.54
2018-12-20T17:35:53.204Z,100821.81
2018-12-20T17:38:59.169Z,100826.90
2018-12-20T17:42:04.050Z,100835.06
2018-12-20T17:45:09.352Z,100837.77
2018-12-20T17:48:14.063Z,100835.56
2018-12-20T17:51:18.629Z,100829.40
2018-12-20T17:54:23.381Z,100827.56
2018-12-20T17:57:28.210Z,100833.47
2018-12-20T18:00:33.013Z,100844.60
2018-12-20T18:03:37.699Z,100853.09
2018-12-20T18:06:42.332Z,100855.44
2018-12-20T18:09:47.005Z,100862.48
2018-12-20T18:12:51.497Z,100860.56
2018-12-20T18:15:56.360Z,100870.61
2018-12-20T18:19:01.238Z,100859.74
2018-12-20T18:22:05.962Z,100860.00
2018-12-20T18:25:10.752Z,100845.78
2018-12-20T18:28:16.573Z,100844.17
2018-12-20T18:31:21.443Z,100846.99
2018-12-20T18:34:26.065Z,100839.36
2018-12-20T18:37:30.585Z,100834.11
2018-12-20T18:40:35.202Z,100833.44
2018-12-20T18:43:40.046Z,100829.95
2018-12-20T18:46:44.658Z,100837.59
2018-12-20T18:49:49.272Z,100842.44
2018-12-20T18:52:53.968Z,100837.73
2018-12-20T18:55:58.581Z,100836.47
2018-12-20T18:59:03.226Z,100849.72
2018-12-20T19:02:09.019Z,100857.16
2018-12-20T19:05:13.698Z,100854.23
2018-12-20T19:08:18.480Z,100863.98
2018-12-20T19:11:23.258Z,100867.66
2018-12-20T19:14:27.921Z,100862.88
2018-12-20T19:17:32.448Z,100856.49
2018-12-20T19:20:37.173Z,100854.67
2018-12-20T19:23:41.859Z,100860.00
2018-12-20T19:26:46.498Z,100863.22
2018-12-20T19:29:51.152Z,100861.09
2018-12-20T19:32:55.735Z,100853.22
2018-12-20T19:36:00.474Z,100851.14
2018-12-20T19:39:08.147Z,100855.44
2018-12-20T19:42:15.289Z,100867.53
2018-12-20T19:45:19.969Z,100866.36
2018-12-20T19:48:24.588Z,100869.05
2018-12-20T19:51:29.287Z,100873.88
2018-12-20T19:54:34.055Z,100875.25
2018-12-20T19:57:38.750Z,100877.38
2018-12-20T20:00:43.321Z,100875.05
2018-12-20T20:03:47.832Z,100885.59
2018-12-20T20:06:52.464Z,100875.05
2018-12-20T20:09:57.098Z,100874.31
2018-12-20T20:13:01.759Z,100878.78
2018-12-20T20:16:06.396Z,100874.39
2018-12-20T20:19:10.901Z,100869.77
2018-12-20T20:22:15.444Z,100867.30
2018-12-20T20:25:20.058Z,100871.52
2018-12-20T20:28:24.807Z,100872.97
2018-12-20T20:31:29.587Z,100871.96
2018-12-20T20:34:34.291Z,100874.60
2018-12-20T20:37:38.857Z,100876.59
2018-12-20T20:40:44.544Z,100876.41
2018-12-20T20:43:49.128Z,100873.98
2018-12-20T20:46:53.712Z,100887.87
2018-12-20T20:49:58.325Z,100890.06
2018-12-20T20:53:02.974Z,100888.18
2018-12-20T20:56:07.587Z,100886.82
2018-12-20T20:59:12.202Z,100877.16
2018-12-20T21:02:16.836Z,100875.40
2018-12-20T21:05:21.373Z,100876.92
2018-12-20T21:08:25.991Z,100871.61
2018-12-20T21:11:30.581Z,100864.95
2018-12-20T21:14:35.294Z,100865.53
2018-12-20T21:17:40.242Z,100871.96
2018-12-20T21:20:44.723Z,100863.27
2018-12-20T21:23:49.553Z,100864.84
2018-12-20T21:26:54.109Z,100868.98
2018-12-20T21:29:58.684Z,100857.13
2018-12-20T21:33:03.246Z,100866.28
2018-12-20T21:36:07.744Z,100856.75
2018-12-20T21:39:12.319Z,100864.66
2018-12-20T21:42:16.905Z,100856.20
2018-12-20T21:45:23.000Z,100862.25
2018-12-20T21:48:27.764Z,100856.19
2018-12-20T21:51:32.574Z,100859.55
2018-12-20T21:54:38.155Z,100852.84
2018-12-20T21:57:42.862Z,100846.84
2018-12-20T22:00:47.479Z,100838.56
2018-12-20T22:03:52.182Z,100837.28
2018-12-20T22:06:56.863Z,100833.20
2018-12-20T22:10:01.531Z,100827.28
2018-12-20T22:13:06.148Z,100825.91
2018-12-20T22:16:10.634Z,100833.08
2018-12-20T22:19:15.262Z,100827.71
2018-12-20T22:22:19.934Z,100832.97
2018-12-20T22:25:24.570Z,100837.91
2018-12-20T22:28:29.186Z,100840.58
2018-12-20T22:31:33.644Z,100831.20
2018-12-20T22:34:38.258Z,100832.12
2018-12-20T22:37:42.892Z,100838.23
2018-12-20T22:40:47.505Z,100846.42
2018-12-20T22:43:52.210Z,100851.89
2018-12-20T22:46:56.795Z,100852.73
2018-12-20T22:50:01.557Z,100847.19
2018-12-20T22:53:07.249Z,100845.02
2018-12-20T22:56:12.079Z,100843.87
2018-12-20T22:59:16.621Z,100828.61
2018-12-20T23:02:21.307Z,100833.13
2018-12-20T23:05:25.929Z,100829.08
2018-12-20T23:08:30.554Z,100825.54
2018-12-20T23:11:35.084Z,100827.59
2018-12-20T23:14:39.709Z,100827.65
2018-12-20T23:17:44.373Z,100823.20
2018-12-20T23:20:48.965Z,100823.77
2018-12-20T23:23:53.570Z,100830.69
2018-12-20T23:26:58.324Z,100819.02
2018-12-20T23:30:02.998Z,100811.29
2018-12-20T23:33:07.675Z,100815.98
2018-12-20T23:36:12.352Z,100827.54
2018-12-20T23:39:16.948Z,100819.16
2018-12-20T23:42:21.742Z,100809.95
2018-12-20T23:45:26.476Z,100810.97
2018-12-20T23:48:31.042Z,100821.73
2018-12-20T23:51:35.769Z,100823.34
2018-12-20T23:54:40.437Z,100816.24
2018-12-20T23:57:44.969Z,100808.37
